sensor_id;sensor_type;location;lat;lon;timestamp;temperature;humidity
44305;DHT22;30019;50.576;8.568;2022-07-23T00:02:25;19.20;99.90
44305;DHT22;30019;50.576;8.568;2022-07-23T00:04:50;19.00;99.90
44305;DHT22;30019;50.576;8.568;2022-07-23T00:07:16;18.80;99.90
44305;DHT22;30019;50.576;8.568;2022-07-23T00:09:42;18.70;99.90
44305;DHT22;30019;50.576;8.568;2022-07-23T00:12:08;18.60;99.90
44305;DHT22;30019;50.576;8.568;2022-07-23T00:14:33;18.50;99.90
44305;DHT22;30019;50.576;8.568;2022-07-23T00:16:59;18.50;99.90
44305;DHT22;30019;50.576;8.568;2022-07-23T00:19:25;18.50;99.90
44305;DHT22;30019;50.576;8.568;2022-07-23T00:21:50;18.60;99.90
44305;DHT22;30019;50.576;8.568;2022-07-23T00:24:16;18.70;99.90
44305;DHT22;30019;50.576;8.568;2022-07-23T00:26:41;18.70;99.90
44305;DHT22;30019;50.576;8.568;2022-07-23T00:29:07;18.70;99.90
44305;DHT22;30019;50.576;8.568;2022-07-23T00:31:32;18.80;99.90
44305;DHT22;30019;50.576;8.568;2022-07-23T00:33:58;18.60;99.90
44305;DHT22;30019;50.576;8.568;2022-07-23T00:36:27;18.60;99.90
44305;DHT22;30019;50.576;8.568;2022-07-23T00:38:53;18.70;99.90
44305;DHT22;30019;50.576;8.568;2022-07-23T00:41:19;18.70;99.90
44305;DHT22;30019;50.576;8.568;2022-07-23T00:43:45;18.60;99.90
44305;DHT22;30019;50.576;8.568;2022-07-23T00:46:10;18.70;99.90
44305;DHT22;30019;50.576;8.568;2022-07-23T00:48:36;18.70;99.90
44305;DHT22;30019;50.576;8.568;2022-07-23T00:51:01;18.70;99.90
44305;DHT22;30019;50.576;8.568;2022-07-23T00:53:27;18.70;99.90
44305;DHT22;30019;50.576;8.568;2022-07-23T00:55:53;18.50;99.90
44305;DHT22;30019;50.576;8.568;2022-07-23T00:58:19;18.40;99.90
44305;DHT22;30019;50.576;8.568;2022-07-23T01:00:45;18.40;99.90
44305;DHT22;30019;50.576;8.568;2022-07-23T01:03:11;18.50;99.90
44305;DHT22;30019;50.576;8.568;2022-07-23T01:05:37;18.50;99.90
44305;DHT22;30019;50.576;8.568;2022-07-23T01:08:03;18.60;99.90
44305;DHT22;30019;50.576;8.568;2022-07-23T01:10:29;18.60;99.90
44305;DHT22;30019;50.576;8.568;2022-07-23T01:13:03;18.60;99.90
44305;DHT22;30019;50.576;8.568;2022-07-23T01:15:30;18.40;99.90
44305;DHT22;30019;50.576;8.568;2022-07-23T01:17:55;18.40;99.90
44305;DHT22;30019;50.576;8.568;2022-07-23T01:20:22;18.40;99.90
44305;DHT22;30019;50.576;8.568;2022-07-23T01:22:48;18.50;99.90
44305;DHT22;30019;50.576;8.568;2022-07-23T01:25:14;18.40;99.90
44305;DHT22;30019;50.576;8.568;2022-07-23T01:27:39;18.50;99.90
44305;DHT22;30019;50.576;8.568;2022-07-23T01:30:06;18.40;99.90
44305;DHT22;30019;50.576;8.568;2022-07-23T01:32:31;18.40;99.90
44305;DHT22;30019;50.576;8.568;2022-07-23T01:34:57;18.40;99.90
44305;DHT22;30019;50.576;8.568;2022-07-23T01:37:22;18.40;99.90
44305;DHT22;30019;50.576;8.568;2022-07-23T01:39:48;18.40;99.90
44305;DHT22;30019;50.576;8.568;2022-07-23T01:42:14;18.40;99.90
44305;DHT22;30019;50.576;8.568;2022-07-23T01:44:39;18.30;99.90
44305;DHT22;30019;50.576;8.568;2022-07-23T01:47:06;18.40;99.90
44305;DHT22;30019;50.576;8.568;2022-07-23T01:49:31;18.30;99.90
44305;DHT22;30019;50.576;8.568;2022-07-23T01:51:57;18.20;99.90
44305;DHT22;30019;50.576;8.568;2022-07-23T01:54:30;18.10;99.90
44305;DHT22;30019;50.576;8.568;2022-07-23T01:56:56;18.10;99.90
44305;DHT22;30019;50.576;8.568;2022-07-23T01:59:22;18.00;99.90
44305;DHT22;30019;50.576;8.568;2022-07-23T02:01:49;18.00;99.90
44305;DHT22;30019;50.576;8.568;2022-07-23T02:04:18;17.90;99.90
44305;DHT22;30019;50.576;8.568;2022-07-23T02:06:44;17.80;99.90
44305;DHT22;30019;50.576;8.568;2022-07-23T02:09:10;17.80;99.90
44305;DHT22;30019;50.576;8.568;2022-07-23T02:11:35;17.80;99.90
44305;DHT22;30019;50.576;8.568;2022-07-23T02:14:01;17.70;99.90
44305;DHT22;30019;50.576;8.568;2022-07-23T02:16:26;17.80;99.90
44305;DHT22;30019;50.576;8.568;2022-07-23T02:18:52;17.80;99.90
44305;DHT22;30019;50.576;8.568;2022-07-23T02:21:18;17.70;99.90
44305;DHT22;30019;50.576;8.568;2022-07-23T02:23:43;17.70;99.90
44305;DHT22;30019;50.576;8.568;2022-07-23T02:26:09;17.80;99.90
44305;DHT22;30019;50.576;8.568;2022-07-23T02:28:34;17.80;99.90
44305;DHT22;30019;50.576;8.568;2022-07-23T02:31:00;17.80;99.90
44305;DHT22;30019;50.576;8.568;2022-07-23T02:33:25;17.90;99.90
44305;DHT22;30019;50.576;8.568;2022-07-23T02:35:51;17.90;99.90
44305;DHT22;30019;50.576;8.568;2022-07-23T02:38:17;17.90;99.90
44305;DHT22;30019;50.576;8.568;2022-07-23T02:40:42;17.90;99.90
44305;DHT22;30019;50.576;8.568;2022-07-23T02:43:08;17.90;99.90
44305;DHT22;30019;50.576;8.568;2022-07-23T02:45:33;17.90;99.90
44305;DHT22;30019;50.576;8.568;2022-07-23T02:47:59;17.90;99.90
44305;DHT22;30019;50.576;8.568;2022-07-23T02:50:24;17.90;99.90
44305;DHT22;30019;50.576;8.568;2022-07-23T02:52:50;17.90;99.90
44305;DHT22;30019;50.576;8.568;2022-07-23T02:55:15;17.90;99.90
44305;DHT22;30019;50.576;8.568;2022-07-23T02:57:41;17.80;99.90
44305;DHT22;30019;50.576;8.568;2022-07-23T03:00:07;17.90;99.90
44305;DHT22;30019;50.576;8.568;2022-07-23T03:02:33;17.80;99.90
44305;DHT22;30019;50.576;8.568;2022-07-23T03:04:58;17.70;99.90
44305;DHT22;30019;50.576;8.568;2022-07-23T03:07:24;17.60;99.90
44305;DHT22;30019;50.576;8.568;2022-07-23T03:09:50;17.60;99.90
44305;DHT22;30019;50.576;8.568;2022-07-23T03:12:15;17.70;99.90
44305;DHT22;30019;50.576;8.568;2022-07-23T03:14:41;17.80;99.90
44305;DHT22;30019;50.576;8.568;2022-07-23T03:17:07;17.70;99.90
44305;DHT22;30019;50.576;8.568;2022-07-23T03:19:33;17.70;99.90
44305;DHT22;30019;50.576;8.568;2022-07-23T03:21:59;17.80;99.90
44305;DHT22;30019;50.576;8.568;2022-07-23T03:24:24;17.90;99.90
44305;DHT22;30019;50.576;8.568;2022-07-23T03:27:10;17.90;99.90
44305;DHT22;30019;50.576;8.568;2022-07-23T03:29:36;18.00;99.90
44305;DHT22;30019;50.576;8.568;2022-07-23T03:32:03;18.10;99.90
44305;DHT22;30019;50.576;8.568;2022-07-23T03:34:29;18.10;99.90
44305;DHT22;30019;50.576;8.568;2022-07-23T03:36:54;18.20;99.90
44305;DHT22;30019;50.576;8.568;2022-07-23T03:39:20;18.10;99.90
44305;DHT22;30019;50.576;8.568;2022-07-23T03:41:45;18.20;99.90
44305;DHT22;30019;50.576;8.568;2022-07-23T03:44:11;18.00;99.90
44305;DHT22;30019;50.576;8.568;2022-07-23T03:46:36;17.90;99.90
44305;DHT22;30019;50.576;8.568;2022-07-23T03:49:02;18.00;99.90
44305;DHT22;30019;50.576;8.568;2022-07-23T03:51:28;18.10;99.90
44305;DHT22;30019;50.576;8.568;2022-07-23T03:53:53;18.10;99.90
44305;DHT22;30019;50.576;8.568;2022-07-23T03:56:20;18.20;99.90
44305;DHT22;30019;50.576;8.568;2022-07-23T03:58:46;18.00;99.90
44305;DHT22;30019;50.576;8.568;2022-07-23T04:01:12;18.00;99.90
44305;DHT22;30019;50.576;8.568;2022-07-23T04:03:37;17.90;99.90
44305;DHT22;30019;50.576;8.568;2022-07-23T04:06:03;17.90;99.90
44305;DHT22;30019;50.576;8.568;2022-07-23T04:08:29;17.70;99.90
44305;DHT22;30019;50.576;8.568;2022-07-23T04:10:55;17.60;99.90
44305;DHT22;30019;50.576;8.568;2022-07-23T04:13:20;17.50;99.90
44305;DHT22;30019;50.576;8.568;2022-07-23T04:15:46;17.50;99.90
44305;DHT22;30019;50.576;8.568;2022-07-23T04:18:12;17.60;99.90
44305;DHT22;30019;50.576;8.568;2022-07-23T04:20:37;17.80;99.90
44305;DHT22;30019;50.576;8.568;2022-07-23T04:23:03;17.80;99.90
44305;DHT22;30019;50.576;8.568;2022-07-23T04:25:28;17.80;99.90
44305;DHT22;30019;50.576;8.568;2022-07-23T04:27:54;17.70;99.90
44305;DHT22;30019;50.576;8.568;2022-07-23T04:30:20;17.70;99.90
44305;DHT22;30019;50.576;8.568;2022-07-23T04:32:45;17.80;99.90
44305;DHT22;30019;50.576;8.568;2022-07-23T04:35:11;17.80;99.90
44305;DHT22;30019;50.576;8.568;2022-07-23T04:37:36;17.90;99.90
44305;DHT22;30019;50.576;8.568;2022-07-23T04:40:02;17.90;99.90
44305;DHT22;30019;50.576;8.568;2022-07-23T04:42:28;17.70;99.90
44305;DHT22;30019;50.576;8.568;2022-07-23T04:44:53;17.70;99.90
44305;DHT22;30019;50.576;8.568;2022-07-23T04:47:19;17.80;99.90
44305;DHT22;30019;50.576;8.568;2022-07-23T04:49:45;17.90;99.90
44305;DHT22;30019;50.576;8.568;2022-07-23T04:52:10;17.90;99.90
44305;DHT22;30019;50.576;8.568;2022-07-23T04:54:36;17.90;99.90
44305;DHT22;30019;50.576;8.568;2022-07-23T04:57:01;18.00;99.90
44305;DHT22;30019;50.576;8.568;2022-07-23T04:59:27;17.80;99.90
44305;DHT22;30019;50.576;8.568;2022-07-23T05:01:52;17.90;99.90
44305;DHT22;30019;50.576;8.568;2022-07-23T05:04:18;18.00;99.90
44305;DHT22;30019;50.576;8.568;2022-07-23T05:06:44;18.00;99.90
44305;DHT22;30019;50.576;8.568;2022-07-23T05:09:09;18.00;99.90
44305;DHT22;30019;50.576;8.568;2022-07-23T05:11:35;18.00;99.90
44305;DHT22;30019;50.576;8.568;2022-07-23T05:14:00;17.80;99.90
44305;DHT22;30019;50.576;8.568;2022-07-23T05:16:26;17.90;99.90
44305;DHT22;30019;50.576;8.568;2022-07-23T05:18:51;18.00;99.90
44305;DHT22;30019;50.576;8.568;2022-07-23T05:21:17;18.20;99.90
44305;DHT22;30019;50.576;8.568;2022-07-23T05:23:43;18.20;99.90
44305;DHT22;30019;50.576;8.568;2022-07-23T05:26:08;18.30;99.90
44305;DHT22;30019;50.576;8.568;2022-07-23T05:28:34;18.60;99.90
44305;DHT22;30019;50.576;8.568;2022-07-23T05:30:59;19.00;99.90
44305;DHT22;30019;50.576;8.568;2022-07-23T05:33:25;19.30;99.90
44305;DHT22;30019;50.576;8.568;2022-07-23T05:35:50;19.60;99.90
44305;DHT22;30019;50.576;8.568;2022-07-23T05:38:16;19.40;99.90
44305;DHT22;30019;50.576;8.568;2022-07-23T05:40:41;19.50;99.90
44305;DHT22;30019;50.576;8.568;2022-07-23T05:43:07;19.70;99.90
44305;DHT22;30019;50.576;8.568;2022-07-23T05:45:32;19.50;99.90
44305;DHT22;30019;50.576;8.568;2022-07-23T05:47:58;19.30;99.90
44305;DHT22;30019;50.576;8.568;2022-07-23T05:50:24;19.20;99.90
44305;DHT22;30019;50.576;8.568;2022-07-23T05:52:50;19.10;99.90
44305;DHT22;30019;50.576;8.568;2022-07-23T05:55:15;19.00;99.90
44305;DHT22;30019;50.576;8.568;2022-07-23T05:57:41;18.90;99.90
44305;DHT22;30019;50.576;8.568;2022-07-23T06:00:08;18.80;99.90
44305;DHT22;30019;50.576;8.568;2022-07-23T06:02:34;18.70;99.90
44305;DHT22;30019;50.576;8.568;2022-07-23T06:05:00;18.70;99.90
44305;DHT22;30019;50.576;8.568;2022-07-23T06:07:25;18.70;99.90
44305;DHT22;30019;50.576;8.568;2022-07-23T06:09:51;18.90;99.90
44305;DHT22;30019;50.576;8.568;2022-07-23T06:12:16;19.00;99.90
44305;DHT22;30019;50.576;8.568;2022-07-23T06:14:43;19.20;99.90
44305;DHT22;30019;50.576;8.568;2022-07-23T06:17:08;19.30;99.90
44305;DHT22;30019;50.576;8.568;2022-07-23T06:19:34;19.30;99.90
44305;DHT22;30019;50.576;8.568;2022-07-23T06:22:00;19.50;99.90
44305;DHT22;30019;50.576;8.568;2022-07-23T06:24:26;19.70;99.90
44305;DHT22;30019;50.576;8.568;2022-07-23T06:26:51;19.80;99.90
44305;DHT22;30019;50.576;8.568;2022-07-23T06:29:17;19.70;99.90
44305;DHT22;30019;50.576;8.568;2022-07-23T06:31:42;19.70;99.90
44305;DHT22;30019;50.576;8.568;2022-07-23T06:34:08;19.60;99.90
44305;DHT22;30019;50.576;8.568;2022-07-23T06:36:33;19.80;99.90
44305;DHT22;30019;50.576;8.568;2022-07-23T06:38:59;20.00;99.90
44305;DHT22;30019;50.576;8.568;2022-07-23T06:41:25;20.10;99.90
44305;DHT22;30019;50.576;8.568;2022-07-23T06:43:50;20.20;99.90
44305;DHT22;30019;50.576;8.568;2022-07-23T06:46:16;20.00;99.90
44305;DHT22;30019;50.576;8.568;2022-07-23T06:48:42;20.00;99.90
44305;DHT22;30019;50.576;8.568;2022-07-23T06:51:07;20.00;99.90
44305;DHT22;30019;50.576;8.568;2022-07-23T06:53:33;19.80;99.90
44305;DHT22;30019;50.576;8.568;2022-07-23T06:55:58;19.70;99.90
44305;DHT22;30019;50.576;8.568;2022-07-23T06:58:24;19.70;99.90
44305;DHT22;30019;50.576;8.568;2022-07-23T07:00:50;19.90;99.90
44305;DHT22;30019;50.576;8.568;2022-07-23T07:03:17;20.00;99.90
44305;DHT22;30019;50.576;8.568;2022-07-23T07:05:42;20.10;99.90
44305;DHT22;30019;50.576;8.568;2022-07-23T07:08:08;20.00;99.90
44305;DHT22;30019;50.576;8.568;2022-07-23T07:10:34;20.10;99.90
44305;DHT22;30019;50.576;8.568;2022-07-23T07:12:59;20.10;99.90
44305;DHT22;30019;50.576;8.568;2022-07-23T07:15:25;20.10;99.90
44305;DHT22;30019;50.576;8.568;2022-07-23T07:17:50;20.20;99.90
44305;DHT22;30019;50.576;8.568;2022-07-23T07:20:16;20.20;99.90
44305;DHT22;30019;50.576;8.568;2022-07-23T07:22:41;20.20;99.90
44305;DHT22;30019;50.576;8.568;2022-07-23T07:25:07;20.30;99.90
44305;DHT22;30019;50.576;8.568;2022-07-23T07:27:33;20.40;99.90
44305;DHT22;30019;50.576;8.568;2022-07-23T07:29:59;20.80;99.90
44305;DHT22;30019;50.576;8.568;2022-07-23T07:32:24;20.90;99.90
44305;DHT22;30019;50.576;8.568;2022-07-23T07:34:50;20.60;99.90
44305;DHT22;30019;50.576;8.568;2022-07-23T07:37:16;20.50;99.90
44305;DHT22;30019;50.576;8.568;2022-07-23T07:39:41;20.70;99.90
44305;DHT22;30019;50.576;8.568;2022-07-23T07:42:07;20.70;99.90
44305;DHT22;30019;50.576;8.568;2022-07-23T07:44:33;20.70;99.90
44305;DHT22;30019;50.576;8.568;2022-07-23T07:46:58;20.70;99.90
44305;DHT22;30019;50.576;8.568;2022-07-23T07:49:24;20.80;99.90
44305;DHT22;30019;50.576;8.568;2022-07-23T07:51:49;20.90;99.90
44305;DHT22;30019;50.576;8.568;2022-07-23T07:54:15;21.00;99.90
44305;DHT22;30019;50.576;8.568;2022-07-23T07:56:41;20.90;99.90
44305;DHT22;30019;50.576;8.568;2022-07-23T07:59:07;20.90;99.90
44305;DHT22;30019;50.576;8.568;2022-07-23T08:01:32;21.20;99.90
44305;DHT22;30019;50.576;8.568;2022-07-23T08:03:58;21.20;99.90
44305;DHT22;30019;50.576;8.568;2022-07-23T08:06:24;21.10;99.90
44305;DHT22;30019;50.576;8.568;2022-07-23T08:08:49;21.60;99.90
44305;DHT22;30019;50.576;8.568;2022-07-23T08:11:15;22.00;99.90
44305;DHT22;30019;50.576;8.568;2022-07-23T08:13:41;22.80;99.90
44305;DHT22;30019;50.576;8.568;2022-07-23T08:16:09;23.80;99.30
44305;DHT22;30019;50.576;8.568;2022-07-23T08:18:35;24.80;96.70
44305;DHT22;30019;50.576;8.568;2022-07-23T08:21:00;26.00;94.00
44305;DHT22;30019;50.576;8.568;2022-07-23T08:23:26;24.80;92.90
44305;DHT22;30019;50.576;8.568;2022-07-23T08:25:52;24.30;94.20
44305;DHT22;30019;50.576;8.568;2022-07-23T08:28:18;23.90;94.90
44305;DHT22;30019;50.576;8.568;2022-07-23T08:30:45;23.70;95.90
44305;DHT22;30019;50.576;8.568;2022-07-23T08:33:12;23.80;95.90
44305;DHT22;30019;50.576;8.568;2022-07-23T08:35:44;23.40;95.40
44305;DHT22;30019;50.576;8.568;2022-07-23T08:38:13;23.00;96.90
44305;DHT22;30019;50.576;8.568;2022-07-23T08:40:47;23.00;97.50
44305;DHT22;30019;50.576;8.568;2022-07-23T08:43:16;23.40;96.10
44305;DHT22;30019;50.576;8.568;2022-07-23T08:45:44;23.60;96.40
44305;DHT22;30019;50.576;8.568;2022-07-23T08:48:18;24.60;95.50
44305;DHT22;30019;50.576;8.568;2022-07-23T08:50:49;24.90;94.60
44305;DHT22;30019;50.576;8.568;2022-07-23T08:53:17;26.10;93.40
44305;DHT22;30019;50.576;8.568;2022-07-23T08:55:55;25.90;91.60
44305;DHT22;30019;50.576;8.568;2022-07-23T08:58:21;25.80;91.80
44305;DHT22;30019;50.576;8.568;2022-07-23T09:00:47;25.30;92.10
44305;DHT22;30019;50.576;8.568;2022-07-23T09:05:43;24.80;92.90
44305;DHT22;30019;50.576;8.568;2022-07-23T09:10:56;24.80;92.30
44305;DHT22;30019;50.576;8.568;2022-07-23T09:13:54;24.90;92.60
44305;DHT22;30019;50.576;8.568;2022-07-23T09:16:25;24.60;93.00
44305;DHT22;30019;50.576;8.568;2022-07-23T09:18:56;24.60;93.10
44305;DHT22;30019;50.576;8.568;2022-07-23T09:21:28;25.00;92.40
44305;DHT22;30019;50.576;8.568;2022-07-23T09:23:59;25.00;93.00
44305;DHT22;30019;50.576;8.568;2022-07-23T09:26:37;24.90;93.10
44305;DHT22;30019;50.576;8.568;2022-07-23T09:29:18;24.80;93.70
44305;DHT22;30019;50.576;8.568;2022-07-23T09:32:02;25.30;93.00
44305;DHT22;30019;50.576;8.568;2022-07-23T09:34:35;25.30;91.50
44305;DHT22;30019;50.576;8.568;2022-07-23T09:39:36;24.80;93.00
44305;DHT22;30019;50.576;8.568;2022-07-23T09:42:18;25.20;92.90
44305;DHT22;30019;50.576;8.568;2022-07-23T09:44:46;25.60;92.30
44305;DHT22;30019;50.576;8.568;2022-07-23T09:47:12;25.50;91.50
44305;DHT22;30019;50.576;8.568;2022-07-23T09:49:38;25.40;91.60
44305;DHT22;30019;50.576;8.568;2022-07-23T09:52:04;25.10;91.70
44305;DHT22;30019;50.576;8.568;2022-07-23T09:54:39;25.40;92.60
44305;DHT22;30019;50.576;8.568;2022-07-23T09:57:06;25.60;92.20
44305;DHT22;30019;50.576;8.568;2022-07-23T09:59:35;25.90;92.10
44305;DHT22;30019;50.576;8.568;2022-07-23T10:02:01;25.90;90.50
44305;DHT22;30019;50.576;8.568;2022-07-23T10:04:29;26.20;90.40
44305;DHT22;30019;50.576;8.568;2022-07-23T10:06:57;26.70;90.20
44305;DHT22;30019;50.576;8.568;2022-07-23T10:09:29;26.70;90.40
44305;DHT22;30019;50.576;8.568;2022-07-23T10:11:58;27.20;88.80
44305;DHT22;30019;50.576;8.568;2022-07-23T10:14:28;27.00;86.70
44305;DHT22;30019;50.576;8.568;2022-07-23T10:16:57;26.30;89.80
44305;DHT22;30019;50.576;8.568;2022-07-23T10:19:23;26.10;91.00
44305;DHT22;30019;50.576;8.568;2022-07-23T10:21:58;26.20;88.70
44305;DHT22;30019;50.576;8.568;2022-07-23T10:36:09;29.50;76.90
44305;DHT22;30019;50.576;8.568;2022-07-23T10:38:52;30.80;74.10
44305;DHT22;30019;50.576;8.568;2022-07-23T10:41:35;29.10;75.70
44305;DHT22;30019;50.576;8.568;2022-07-23T10:44:13;27.90;79.30
44305;DHT22;30019;50.576;8.568;2022-07-23T10:46:59;26.60;81.80
44305;DHT22;30019;50.576;8.568;2022-07-23T10:49:32;27.40;81.10
44305;DHT22;30019;50.576;8.568;2022-07-23T10:54:40;31.00;72.90
44305;DHT22;30019;50.576;8.568;2022-07-23T10:57:07;29.50;72.10
44305;DHT22;30019;50.576;8.568;2022-07-23T11:02:41;29.90;71.50
44305;DHT22;30019;50.576;8.568;2022-07-23T11:05:10;30.50;71.70
44305;DHT22;30019;50.576;8.568;2022-07-23T11:10:33;29.20;77.10
44305;DHT22;30019;50.576;8.568;2022-07-23T11:31:59;28.10;73.00
44305;DHT22;30019;50.576;8.568;2022-07-23T11:36:57;27.50;77.80
44305;DHT22;30019;50.576;8.568;2022-07-23T11:39:25;28.30;75.80
44305;DHT22;30019;50.576;8.568;2022-07-23T11:41:51;29.80;72.60
44305;DHT22;30019;50.576;8.568;2022-07-23T11:44:26;29.30;71.20
44305;DHT22;30019;50.576;8.568;2022-07-23T11:47:05;29.60;70.70
44305;DHT22;30019;50.576;8.568;2022-07-23T11:49:31;30.40;70.30
44305;DHT22;30019;50.576;8.568;2022-07-23T11:52:13;30.60;65.90
44305;DHT22;30019;50.576;8.568;2022-07-23T11:54:57;30.40;65.60
44305;DHT22;30019;50.576;8.568;2022-07-23T11:57:28;30.70;66.00
44305;DHT22;30019;50.576;8.568;2022-07-23T11:59:57;30.40;64.60
44305;DHT22;30019;50.576;8.568;2022-07-23T12:02:23;30.20;66.20
44305;DHT22;30019;50.576;8.568;2022-07-23T12:04:50;29.50;65.70
44305;DHT22;30019;50.576;8.568;2022-07-23T12:07:45;29.50;67.00
44305;DHT22;30019;50.576;8.568;2022-07-23T12:10:23;29.20;64.80
44305;DHT22;30019;50.576;8.568;2022-07-23T12:15:27;29.40;63.70
44305;DHT22;30019;50.576;8.568;2022-07-23T12:17:54;29.50;64.30
44305;DHT22;30019;50.576;8.568;2022-07-23T12:20:23;29.20;64.80
44305;DHT22;30019;50.576;8.568;2022-07-23T12:22:52;29.00;63.80
44305;DHT22;30019;50.576;8.568;2022-07-23T12:25:20;29.00;66.10
44305;DHT22;30019;50.576;8.568;2022-07-23T12:28:04;29.00;64.00
44305;DHT22;30019;50.576;8.568;2022-07-23T12:33:08;29.50;64.80
44305;DHT22;30019;50.576;8.568;2022-07-23T12:35:36;29.30;62.00
44305;DHT22;30019;50.576;8.568;2022-07-23T12:38:08;28.90;63.30
44305;DHT22;30019;50.576;8.568;2022-07-23T12:40:44;28.70;63.50
44305;DHT22;30019;50.576;8.568;2022-07-23T12:45:47;29.10;96.20
44305;DHT22;30019;50.576;8.568;2022-07-23T12:48:30;29.80;95.50
44305;DHT22;30019;50.576;8.568;2022-07-23T12:51:01;29.70;93.60
44305;DHT22;30019;50.576;8.568;2022-07-23T12:53:30;28.30;93.50
44305;DHT22;30019;50.576;8.568;2022-07-23T12:56:11;30.00;92.40
44305;DHT22;30019;50.576;8.568;2022-07-23T12:58:53;29.60;92.00
44305;DHT22;30019;50.576;8.568;2022-07-23T13:04:05;30.00;93.10
44305;DHT22;30019;50.576;8.568;2022-07-23T13:06:37;29.50;91.80
44305;DHT22;30019;50.576;8.568;2022-07-23T13:09:05;29.60;92.80
44305;DHT22;30019;50.576;8.568;2022-07-23T13:11:31;29.40;92.30
44305;DHT22;30019;50.576;8.568;2022-07-23T13:13:56;29.60;92.50
44305;DHT22;30019;50.576;8.568;2022-07-23T13:16:22;29.70;92.10
44305;DHT22;30019;50.576;8.568;2022-07-23T13:18:48;29.20;93.10
44305;DHT22;30019;50.576;8.568;2022-07-23T13:21:14;29.20;93.30
44305;DHT22;30019;50.576;8.568;2022-07-23T13:23:39;29.30;92.30
44305;DHT22;30019;50.576;8.568;2022-07-23T13:26:05;29.50;91.80
44305;DHT22;30019;50.576;8.568;2022-07-23T13:28:31;29.30;91.70
44305;DHT22;30019;50.576;8.568;2022-07-23T13:30:57;30.00;92.30
44305;DHT22;30019;50.576;8.568;2022-07-23T13:33:24;29.80;90.70
44305;DHT22;30019;50.576;8.568;2022-07-23T13:35:51;29.30;91.70
44305;DHT22;30019;50.576;8.568;2022-07-23T13:38:18;29.30;92.10
44305;DHT22;30019;50.576;8.568;2022-07-23T13:40:46;29.90;91.40
44305;DHT22;30019;50.576;8.568;2022-07-23T13:43:14;30.00;88.30
44305;DHT22;30019;50.576;8.568;2022-07-23T13:45:41;29.80;90.80
44305;DHT22;30019;50.576;8.568;2022-07-23T13:48:10;29.80;91.20
44305;DHT22;30019;50.576;8.568;2022-07-23T13:50:37;29.70;91.50
44305;DHT22;30019;50.576;8.568;2022-07-23T13:53:09;29.50;93.20
44305;DHT22;30019;50.576;8.568;2022-07-23T13:55:36;29.40;92.60
44305;DHT22;30019;50.576;8.568;2022-07-23T13:58:02;29.20;92.60
44305;DHT22;30019;50.576;8.568;2022-07-23T14:00:29;29.10;92.40
44305;DHT22;30019;50.576;8.568;2022-07-23T14:02:56;28.70;92.20
44305;DHT22;30019;50.576;8.568;2022-07-23T14:05:22;28.60;92.50
44305;DHT22;30019;50.576;8.568;2022-07-23T14:07:47;28.20;93.20
44305;DHT22;30019;50.576;8.568;2022-07-23T14:10:16;28.10;93.80
44305;DHT22;30019;50.576;8.568;2022-07-23T14:12:43;28.00;93.20
44305;DHT22;30019;50.576;8.568;2022-07-23T14:15:09;28.00;93.80
44305;DHT22;30019;50.576;8.568;2022-07-23T14:17:40;28.70;94.10
44305;DHT22;30019;50.576;8.568;2022-07-23T14:20:07;29.30;93.60
44305;DHT22;30019;50.576;8.568;2022-07-23T14:22:33;29.00;92.80
44305;DHT22;30019;50.576;8.568;2022-07-23T14:24:59;28.90;93.40
44305;DHT22;30019;50.576;8.568;2022-07-23T14:27:26;28.90;93.30
44305;DHT22;30019;50.576;8.568;2022-07-23T14:29:53;29.10;93.20
44305;DHT22;30019;50.576;8.568;2022-07-23T14:32:19;29.10;92.90
44305;DHT22;30019;50.576;8.568;2022-07-23T14:34:44;29.50;92.70
44305;DHT22;30019;50.576;8.568;2022-07-23T14:37:10;29.70;92.90
44305;DHT22;30019;50.576;8.568;2022-07-23T14:39:39;30.50;91.80
44305;DHT22;30019;50.576;8.568;2022-07-23T14:42:06;29.50;91.90
44305;DHT22;30019;50.576;8.568;2022-07-23T14:44:32;29.70;91.90
44305;DHT22;30019;50.576;8.568;2022-07-23T14:46:58;30.20;91.30
44305;DHT22;30019;50.576;8.568;2022-07-23T14:49:25;30.10;91.30
44305;DHT22;30019;50.576;8.568;2022-07-23T14:51:51;30.00;90.90
44305;DHT22;30019;50.576;8.568;2022-07-23T14:54:16;29.60;90.90
44305;DHT22;30019;50.576;8.568;2022-07-23T14:56:42;28.60;57.30
44305;DHT22;30019;50.576;8.568;2022-07-23T14:59:08;28.60;58.40
44305;DHT22;30019;50.576;8.568;2022-07-23T15:01:34;28.60;58.30
44305;DHT22;30019;50.576;8.568;2022-07-23T15:04:00;28.50;58.40
44305;DHT22;30019;50.576;8.568;2022-07-23T15:06:26;28.60;58.50
44305;DHT22;30019;50.576;8.568;2022-07-23T15:08:51;28.50;57.40
44305;DHT22;30019;50.576;8.568;2022-07-23T15:11:17;28.60;57.50
44305;DHT22;30019;50.576;8.568;2022-07-23T15:13:43;28.90;57.30
44305;DHT22;30019;50.576;8.568;2022-07-23T15:16:08;28.60;57.60
44305;DHT22;30019;50.576;8.568;2022-07-23T15:18:34;28.60;57.40
44305;DHT22;30019;50.576;8.568;2022-07-23T15:21:01;28.40;57.80
44305;DHT22;30019;50.576;8.568;2022-07-23T15:23:27;28.10;58.00
44305;DHT22;30019;50.576;8.568;2022-07-23T15:25:54;28.30;58.50
44305;DHT22;30019;50.576;8.568;2022-07-23T15:28:21;28.60;58.40
44305;DHT22;30019;50.576;8.568;2022-07-23T15:30:47;28.90;57.60
44305;DHT22;30019;50.576;8.568;2022-07-23T15:33:13;29.50;55.70
44305;DHT22;30019;50.576;8.568;2022-07-23T15:35:38;29.70;56.10
44305;DHT22;30019;50.576;8.568;2022-07-23T15:38:04;29.50;56.10
44305;DHT22;30019;50.576;8.568;2022-07-23T15:42:55;29.30;56.60
44305;DHT22;30019;50.576;8.568;2022-07-23T15:45:21;29.60;58.10
44305;DHT22;30019;50.576;8.568;2022-07-23T15:47:48;29.80;56.90
44305;DHT22;30019;50.576;8.568;2022-07-23T15:50:14;29.80;56.70
44305;DHT22;30019;50.576;8.568;2022-07-23T15:52:40;29.50;57.00
44305;DHT22;30019;50.576;8.568;2022-07-23T15:55:07;29.50;57.20
44305;DHT22;30019;50.576;8.568;2022-07-23T15:57:33;28.80;58.70
44305;DHT22;30019;50.576;8.568;2022-07-23T15:59:58;29.10;58.10
44305;DHT22;30019;50.576;8.568;2022-07-23T16:02:24;28.90;57.30
44305;DHT22;30019;50.576;8.568;2022-07-23T16:04:50;29.00;57.90
44305;DHT22;30019;50.576;8.568;2022-07-23T16:07:18;28.50;57.00
44305;DHT22;30019;50.576;8.568;2022-07-23T16:09:44;28.30;57.70
44305;DHT22;30019;50.576;8.568;2022-07-23T16:12:09;28.30;58.60
44305;DHT22;30019;50.576;8.568;2022-07-23T16:14:35;28.20;58.40
44305;DHT22;30019;50.576;8.568;2022-07-23T16:17:01;28.30;59.10
44305;DHT22;30019;50.576;8.568;2022-07-23T16:19:26;28.10;57.50
44305;DHT22;30019;50.576;8.568;2022-07-23T16:21:52;27.80;58.20
44305;DHT22;30019;50.576;8.568;2022-07-23T16:24:18;27.80;58.10
44305;DHT22;30019;50.576;8.568;2022-07-23T16:26:44;28.00;58.00
44305;DHT22;30019;50.576;8.568;2022-07-23T16:29:10;28.40;57.90
44305;DHT22;30019;50.576;8.568;2022-07-23T16:31:36;28.70;57.50
44305;DHT22;30019;50.576;8.568;2022-07-23T16:34:02;28.60;56.40